Time;durP1;ratioP1;P1;durP2;ratioP2;P2;SDS_P1;SDS_P2;PMS_P1;PMS_P2;Temp;Humidity;BMP_temperature;BMP_pressure;BME280_temperature;BME280_humidity;BME280_pressure;Samples;Min_cycle;Max_cycle;Signal;HPM_P1;HPM_P2
2021/08/01 00:00:01;;;;;;;4.45;1.98;;;;;;;15.82;72.95;100616.56;5080493;28;20047;-43
2021/08/01 00:02:28;;;;;;;6.88;2.55;;;;;;;15.82;73.02;100618.56;5079401;28;20147;-44
2021/08/01 00:04:57;;;;;;;5.97;2.78;;;;;;;15.77;73.27;100610.53;5079582;28;20599;-47
2021/08/01 00:07:24;;;;;;;3.38;2.25;;;;;;;15.71;73.55;100606.47;5080556;28;20125;-49
2021/08/01 00:10:00;;;;;;;6.57;2.38;;;;;;;15.63;73.25;100604.78;5078966;28;20090;-45
2021/08/01 00:12:27;;;;;;;7.03;2.65;;;;;;;15.61;73.24;100602.41;5079220;28;20054;-51
2021/08/01 00:14:55;;;;;;;3.42;2.38;;;;;;;15.57;73.12;100600.72;5079802;28;20608;-43
2021/08/01 00:17:22;;;;;;;5.35;2.25;;;;;;;15.50;73.05;100595.88;5081647;28;20044;-47
2021/08/01 00:19:49;;;;;;;5.63;2.60;;;;;;;15.43;72.98;100589.41;5083107;28;20521;-43
2021/08/01 00:22:17;;;;;;;5.50;2.38;;;;;;;15.40;72.71;100590.97;5083417;28;20094;-46
2021/08/01 00:24:43;;;;;;;6.72;2.63;;;;;;;15.35;72.52;100576.56;5082388;28;20158;-50
2021/08/01 00:27:10;;;;;;;4.03;2.25;;;;;;;15.24;72.41;100593.16;5083216;28;20330;-44
2021/08/01 00:29:37;;;;;;;4.50;2.05;;;;;;;15.12;72.39;100591.41;5083514;28;20142;-44
2021/08/01 00:32:06;;;;;;;5.70;2.33;;;;;;;15.04;72.38;100592.50;5082809;28;20067;-50
2021/08/01 00:34:34;;;;;;;4.45;2.17;;;;;;;14.93;72.36;100599.94;5082267;28;20068;-46
2021/08/01 00:37:01;;;;;;;2.60;1.77;;;;;;;14.89;72.41;100607.44;5083795;28;20040;-43
2021/08/01 00:39:28;;;;;;;4.00;2.55;;;;;;;14.89;72.29;100607.44;5083906;28;20044;-48
2021/08/01 00:41:56;;;;;;;3.60;1.80;;;;;;;14.84;72.02;100607.78;5083266;28;20044;-44
2021/08/01 00:44:23;;;;;;;5.80;2.13;;;;;;;14.86;72.36;100611.00;5082541;28;20040;-44
2021/08/01 00:46:50;;;;;;;3.63;2.17;;;;;;;14.93;72.23;100605.50;5083712;28;20374;-43
2021/08/01 00:49:18;;;;;;;2.67;2.10;;;;;;;14.95;72.20;100607.94;5083704;28;20044;-46
2021/08/01 00:51:46;;;;;;;5.40;2.45;;;;;;;14.96;72.52;100613.13;5082685;28;20044;-44
2021/08/01 00:54:12;;;;;;;7.65;2.78;;;;;;;14.98;72.55;100609.97;5083877;28;20142;-43
2021/08/01 00:56:40;;;;;;;5.25;2.78;;;;;;;14.99;72.82;100603.19;5080355;28;20060;-46
2021/08/01 00:59:07;;;;;;;4.38;2.35;;;;;;;15.00;72.56;100615.97;5082319;28;20054;-47
2021/08/01 01:01:40;;;;;;;4.05;2.45;;;;;;;14.97;72.77;100609.16;5082949;28;20044;-45
2021/08/01 01:04:19;;;;;;;6.10;3.15;;;;;;;14.98;72.73;100607.97;5082317;28;20496;-46
2021/08/01 01:07:04;;;;;;;2.78;2.22;;;;;;;14.96;72.78;100609.50;5064330;28;20067;-46
2021/08/01 01:09:53;;;;;;;8.15;2.70;;;;;;;14.94;72.69;100611.88;5082025;28;20055;-44
2021/08/01 01:12:32;;;;;;;7.78;3.70;;;;;;;14.94;72.45;100612.69;5082586;28;20044;-49
2021/08/01 01:15:02;;;;;;;2.92;2.20;;;;;;;14.94;72.11;100611.88;5082366;28;20112;-43
2021/08/01 01:17:32;;;;;;;5.35;2.55;;;;;;;14.96;72.14;100617.88;5083313;28;20043;-43
2021/08/01 01:20:23;;;;;;;4.65;2.60;;;;;;;14.86;71.90;100604.59;5082878;28;20424;-43
2021/08/01 01:23:14;;;;;;;5.35;2.25;;;;;;;14.83;71.97;100611.75;5082119;28;20052;-45
2021/08/01 01:25:58;;;;;;;7.35;3.00;;;;;;;14.82;71.87;100610.16;5082295;28;20433;-42
2021/08/01 01:28:43;;;;;;;4.53;2.38;;;;;;;14.80;71.45;100612.50;5081443;28;20643;-43
2021/08/01 01:31:35;;;;;;;5.72;2.67;;;;;;;14.76;71.51;100610.84;5081078;28;20051;-44
2021/08/01 01:34:31;;;;;;;5.70;2.42;;;;;;;14.74;71.41;100613.22;5082799;28;20044;-43
2021/08/01 01:37:01;;;;;;;6.97;2.90;;;;;;;14.70;71.38;100613.16;5061310;28;20058;-46
2021/08/01 01:39:30;;;;;;;8.05;2.83;;;;;;;14.68;71.43;100612.72;5080851;28;20044;-43
2021/08/01 01:41:58;;;;;;;4.30;2.78;;;;;;;14.69;71.47;100611.56;5081381;28;20048;-43
2021/08/01 01:44:25;;;;;;;6.47;2.53;;;;;;;14.64;71.73;100614.63;5081605;28;20082;-43
2021/08/01 01:46:53;;;;;;;4.88;2.53;;;;;;;14.61;71.90;100618.19;5081929;28;20036;-43
2021/08/01 01:49:20;;;;;;;4.88;2.72;;;;;;;14.58;71.52;100621.72;5082774;28;20092;-45
2021/08/01 01:51:47;;;;;;;3.63;2.72;;;;;;;14.59;71.43;100612.19;5080981;28;20044;-44
2021/08/01 01:54:15;;;;;;;5.30;2.30;;;;;;;14.56;71.52;100612.97;5082301;28;20048;-45
2021/08/01 01:56:43;;;;;;;4.93;2.90;;;;;;;14.52;71.26;100612.09;5080519;28;20054;-41
2021/08/01 01:59:12;;;;;;;7.32;2.78;;;;;;;14.51;71.21;100610.47;5081832;28;20047;-47
2021/08/01 02:01:40;;;;;;;5.78;2.53;;;;;;;14.47;71.38;100610.44;5081343;28;20050;-46
2021/08/01 02:04:07;;;;;;;6.88;2.50;;;;;;;14.50;71.44;100614.44;5081974;28;20040;-44
2021/08/01 02:06:34;;;;;;;4.97;2.40;;;;;;;14.52;71.29;100612.09;5081717;28;20055;-42
2021/08/01 02:09:01;;;;;;;5.47;2.97;;;;;;;14.50;71.21;100615.25;5081605;28;20135;-48
2021/08/01 02:11:56;;;;;;;4.57;2.58;;;;;;;14.49;70.98;100619.22;5082240;28;20044;-45
2021/08/01 02:14:28;;;;;;;4.57;2.67;;;;;;;14.51;70.83;100605.69;5081150;28;20052;-47
2021/08/01 02:17:05;;;;;;;5.45;2.60;;;;;;;14.48;70.87;100616.81;5080493;28;20043;-46
2021/08/01 02:19:37;;;;;;;5.82;2.58;;;;;;;14.41;71.07;100611.91;5048545;28;20051;-46
2021/08/01 02:22:06;;;;;;;4.70;2.15;;;;;;;14.40;70.87;100607.50;5081099;28;20055;-45
2021/08/01 02:24:35;;;;;;;4.03;2.17;;;;;;;14.41;70.79;100611.09;5081822;28;20144;-47
2021/08/01 02:27:04;;;;;;;6.00;2.63;;;;;;;14.40;70.77;100615.88;5080033;28;20414;-43
2021/08/01 02:29:32;;;;;;;7.25;2.63;;;;;;;14.41;70.79;100609.13;5081175;28;20040;-44
2021/08/01 02:32:00;;;;;;;3.85;2.10;;;;;;;14.39;70.98;100608.72;5081035;28;20059;-42
2021/08/01 02:34:27;;;;;;;4.18;2.10;;;;;;;14.40;70.75;100615.88;5082202;28;20054;-43
2021/08/01 02:36:54;;;;;;;3.30;2.05;;;;;;;14.40;70.64;100609.53;5080111;28;20397;-42
2021/08/01 02:39:22;;;;;;;5.55;2.42;;;;;;;14.34;70.64;100611.00;5079658;28;20054;-45
2021/08/01 02:41:52;;;;;;;6.05;2.78;;;;;;;14.35;71.02;100612.63;5080243;28;20051;-46
2021/08/01 02:44:27;;;;;;;2.80;2.25;;;;;;;14.37;70.67;100616.66;5080806;28;20577;-42
2021/08/01 02:46:54;;;;;;;6.03;2.35;;;;;;;14.38;70.54;100618.22;5081654;28;20044;-44
2021/08/01 02:49:27;;;;;;;2.33;2.00;;;;;;;14.45;70.40;100614.78;5080700;28;20032;-42
2021/08/01 02:51:58;;;;;;;8.35;2.97;;;;;;;14.48;69.99;100620.38;5063364;28;20054;-45
2021/08/01 02:54:27;;;;;;;4.73;2.00;;;;;;;14.43;70.44;100619.88;5080809;28;20070;-46
2021/08/01 02:57:00;;;;;;;4.68;2.63;;;;;;;14.39;70.16;100613.47;5061363;28;20044;-48
2021/08/01 02:59:30;;;;;;;9.18;4.65;;;;;;;14.41;70.29;100613.91;5080739;28;20503;-44
2021/08/01 03:01:59;;;;;;;4.03;2.45;;;;;;;14.44;69.98;100610.38;5081033;28;20043;-44
2021/08/01 03:04:27;;;;;;;5.15;2.45;;;;;;;14.40;70.01;100603.94;5080139;28;20130;-47
2021/08/01 03:06:54;;;;;;;8.38;2.80;;;;;;;14.37;69.99;100607.47;5081341;28;20062;-46
2021/08/01 03:09:21;;;;;;;4.47;2.30;;;;;;;14.38;70.00;100617.41;5081064;28;20039;-47
2021/08/01 03:11:48;;;;;;;7.13;2.25;;;;;;;14.38;70.21;100620.22;5079795;28;20074;-45
2021/08/01 03:14:15;;;;;;;6.13;3.15;;;;;;;14.43;70.08;100615.13;5079966;28;20060;-44
2021/08/01 03:16:42;;;;;;;4.38;3.22;;;;;;;14.38;69.91;100614.63;5078869;28;20079;-47
2021/08/01 03:19:09;;;;;;;2.90;2.60;;;;;;;14.35;69.61;100618.97;5080336;28;20131;-47
2021/08/01 03:21:36;;;;;;;3.92;2.50;;;;;;;14.28;69.45;100610.47;5080015;28;20047;-51
2021/08/01 03:24:04;;;;;;;6.47;2.72;;;;;;;14.19;69.25;100609.16;5080668;28;20054;-44
2021/08/01 03:26:31;;;;;;;4.00;2.63;;;;;;;14.10;69.11;100611.38;5080517;28;20837;-47
2021/08/01 03:28:58;;;;;;;5.28;2.83;;;;;;;14.09;69.06;100604.19;5079387;28;20051;-49
2021/08/01 03:31:26;;;;;;;5.18;2.50;;;;;;;14.12;68.99;100600.66;5078397;28;21471;-46
2021/08/01 03:33:54;;;;;;;3.35;2.72;;;;;;;14.08;69.06;100605.38;5080578;28;20055;-43
2021/08/01 03:36:21;;;;;;;3.03;2.70;;;;;;;14.02;68.97;100602.09;5079593;28;20051;-42
2021/08/01 03:38:47;;;;;;;5.90;2.70;;;;;;;14.02;68.69;100605.69;5080118;28;20047;-43
2021/08/01 03:41:14;;;;;;;4.85;2.47;;;;;;;14.02;68.45;100616.81;5078468;28;20121;-44
2021/08/01 03:43:42;;;;;;;5.82;2.60;;;;;;;13.99;68.47;100622.31;5079852;28;20058;-43
2021/08/01 03:46:09;;;;;;;5.72;3.63;;;;;;;13.98;68.23;100624.28;5079831;28;20048;-46
2021/08/01 03:48:36;;;;;;;5.18;3.58;;;;;;;13.97;68.17;100619.91;5080687;28;20054;-50
2021/08/01 03:51:03;;;;;;;4.32;2.55;;;;;;;13.93;68.37;100609.88;5080550;28;20055;-43
2021/08/01 03:53:31;;;;;;;4.57;2.67;;;;;;;13.89;67.88;100622.94;5084273;28;20032;-43
2021/08/01 03:56:03;;;;;;;6.00;3.40;;;;;;;13.84;68.07;100618.50;5083595;28;20072;-45
2021/08/01 03:58:31;;;;;;;10.35;2.85;;;;;;;13.83;67.70;100613.28;5085186;28;20695;-42
2021/08/01 04:01:00;;;;;;;5.78;3.33;;;;;;;13.81;68.20;100624.78;5085295;28;20036;-48
2021/08/01 04:03:27;;;;;;;4.30;2.20;;;;;;;13.80;67.70;100619.59;5084298;28;20048;-44
2021/08/01 04:05:54;;;;;;;4.25;2.63;;;;;;;13.76;67.82;100616.75;5084502;28;20056;-43
2021/08/01 04:08:21;;;;;;;3.50;2.40;;;;;;;13.74;67.28;100627.44;5084118;28;20040;-44
2021/08/01 04:10:48;;;;;;;7.80;2.78;;;;;;;13.77;67.52;100621.13;5084447;28;20122;-47
2021/08/01 04:13:15;;;;;;;4.20;2.45;;;;;;;13.78;67.64;100633.88;5083873;28;20101;-43
2021/08/01 04:15:46;;;;;;;8.55;4.18;;;;;;;13.78;67.71;100633.88;5083374;28;20477;-45
2021/08/01 04:18:13;;;;;;;3.20;2.60;;;;;;;13.78;67.65;100638.63;5085004;28;20049;-47
2021/08/01 04:20:40;;;;;;;5.60;2.22;;;;;;;13.78;67.94;100631.09;5066125;28;20080;-44
2021/08/01 04:23:07;;;;;;;6.47;2.47;;;;;;;13.78;68.11;100641.41;5084604;28;20139;-45
2021/08/01 04:25:34;;;;;;;4.32;2.53;;;;;;;13.79;68.08;100640.25;5084114;28;20051;-43
2021/08/01 04:28:02;;;;;;;2.95;2.42;;;;;;;13.71;67.59;100644.88;5084545;28;20396;-42
2021/08/01 04:30:33;;;;;;;4.97;2.17;;;;;;;13.64;67.46;100647.50;5084599;28;20138;-43
2021/08/01 04:33:00;;;;;;;4.10;2.28;;;;;;;13.65;67.78;100651.91;5083352;28;20314;-45
2021/08/01 04:35:27;;;;;;;5.70;2.50;;;;;;;13.62;67.15;100647.06;5083725;28;20040;-43
2021/08/01 04:37:54;;;;;;;3.05;1.88;;;;;;;13.62;67.23;100652.66;5084637;28;20059;-43
2021/08/01 04:40:20;;;;;;;5.65;3.70;;;;;;;13.62;67.09;100662.97;5083492;28;20048;-49
2021/08/01 04:42:47;;;;;;;4.90;2.40;;;;;;;13.67;66.69;100665.44;5083955;28;20123;-42
2021/08/01 04:45:14;;;;;;;3.15;2.55;;;;;;;13.68;66.67;100653.97;5082946;28;20079;-44
2021/08/01 04:47:41;;;;;;;2.22;2.03;;;;;;;13.67;66.95;100660.69;5083350;28;20050;-44
2021/08/01 04:50:08;;;;;;;3.92;2.33;;;;;;;13.67;66.96;100660.69;5065296;28;20040;-45
2021/08/01 04:52:35;;;;;;;2.10;1.88;;;;;;;13.67;66.71;100660.69;5084636;28;20040;-42
2021/08/01 04:55:02;;;;;;;3.72;2.08;;;;;;;13.67;66.25;100665.44;5083990;28;20052;-43
2021/08/01 04:57:31;;;;;;;4.28;2.60;;;;;;;13.64;66.32;100666.16;5082846;28;20051;-44
2021/08/01 04:59:59;;;;;;;3.35;1.83;;;;;;;13.63;66.33;100659.81;5082639;28;20047;-43
2021/08/01 05:02:26;;;;;;;5.68;2.30;;;;;;;13.60;66.38;100655.00;5082322;28;20048;-45
2021/08/01 05:04:53;;;;;;;2.80;2.00;;;;;;;13.62;66.49;100669.34;5082784;28;20051;-48
2021/08/01 05:07:20;;;;;;;2.10;1.73;;;;;;;13.61;66.51;100676.06;5083314;28;20192;-45
2021/08/01 05:09:47;;;;;;;2.70;1.63;;;;;;;13.64;66.58;100672.53;5083547;28;20047;-46
2021/08/01 05:12:17;;;;;;;2.85;1.67;;;;;;;13.64;66.68;100672.53;5082514;28;22296;-47
2021/08/01 05:14:45;;;;;;;2.13;1.92;;;;;;;13.68;66.99;100676.22;5082576;28;20032;-43
2021/08/01 05:17:14;;;;;;;8.32;2.17;;;;;;;13.71;66.78;100678.28;5081947;28;20076;-48
2021/08/01 05:19:42;;;;;;;3.58;1.73;;;;;;;13.74;66.38;100688.63;5082639;28;20796;-43
2021/08/01 05:22:10;;;;;;;2.17;1.65;;;;;;;13.76;66.01;100683.53;5064139;28;20135;-43
2021/08/01 05:24:39;;;;;;;4.15;1.52;;;;;;;13.77;65.94;100687.91;5082569;28;20059;-45
2021/08/01 05:27:08;;;;;;;2.92;1.63;;;;;;;13.74;66.20;100687.84;5081243;28;20040;-43
2021/08/01 05:29:35;;;;;;;3.92;1.92;;;;;;;13.71;66.07;100694.97;5082386;28;20409;-44
2021/08/01 05:32:04;;;;;;;4.00;1.83;;;;;;;13.75;65.85;100692.22;5082240;28;20138;-46
2021/08/01 05:34:34;;;;;;;3.33;1.55;;;;;;;13.75;65.83;100695.81;5080293;28;20683;-50
2021/08/01 05:37:01;;;;;;;5.43;1.80;;;;;;;13.77;65.40;100699.03;5064638;28;20160;-45
2021/08/01 05:39:28;;;;;;;2.85;1.80;;;;;;;13.77;65.75;100701.81;5082058;28;20431;-43
2021/08/01 05:41:55;;;;;;;3.25;1.42;;;;;;;13.77;65.55;100701.81;5082108;28;20036;-44
2021/08/01 05:44:23;;;;;;;3.90;2.13;;;;;;;13.77;65.80;100703.78;5082319;28;20443;-42
2021/08/01 05:46:50;;;;;;;2.10;1.50;;;;;;;13.74;65.43;100699.00;5082505;28;20460;-45
2021/08/01 05:49:17;;;;;;;4.95;2.22;;;;;;;13.75;65.42;100712.53;5082748;28;20583;-43
2021/08/01 05:51:44;;;;;;;5.00;1.88;;;;;;;13.78;65.48;100710.97;5081661;28;20036;-49
2021/08/01 05:54:14;;;;;;;2.92;1.67;;;;;;;13.78;65.58;100717.34;5081766;28;20071;-44
2021/08/01 05:56:42;;;;;;;5.68;1.45;;;;;;;13.78;65.62;100717.34;5082137;28;20056;-43
2021/08/01 05:59:09;;;;;;;2.70;1.92;;;;;;;13.87;65.69;100719.91;5081541;28;20043;-42
2021/08/01 06:01:36;;;;;;;3.15;2.38;;;;;;;13.91;65.50;100727.16;5080993;28;20075;-49
2021/08/01 06:04:03;;;;;;;4.43;1.60;;;;;;;13.90;65.39;100722.75;5082270;28;20036;-43
2021/08/01 06:06:30;;;;;;;2.92;1.60;;;;;;;13.91;65.31;100721.59;5082086;28;20085;-42
2021/08/01 06:08:57;;;;;;;3.47;1.60;;;;;;;13.91;65.47;100729.94;5083637;28;20059;-43
2021/08/01 06:11:24;;;;;;;8.20;3.05;;;;;;;13.90;65.72;100719.97;5081171;28;20397;-50
2021/08/01 06:13:54;;;;;;;1.90;1.50;;;;;;;13.94;65.69;100732.00;5064307;28;20040;-45
2021/08/01 06:16:21;;;;;;;5.78;1.80;;;;;;;13.98;65.64;100729.25;5081683;28;20121;-46
2021/08/01 06:18:58;;;;;;;3.13;1.77;;;;;;;13.99;65.21;100731.69;5081831;28;20455;-42
2021/08/01 06:21:27;;;;;;;3.75;1.40;;;;;;;14.02;65.44;100730.16;5063385;28;20078;-42
2021/08/01 06:23:54;;;;;;;6.18;2.05;;;;;;;14.02;65.36;100739.31;5081706;28;20074;-45
2021/08/01 06:26:22;;;;;;;3.85;1.65;;;;;;;14.08;65.12;100727.88;5081679;28;20823;-43
2021/08/01 06:28:51;;;;;;;5.82;1.58;;;;;;;14.14;65.07;100726.41;5080775;28;20576;-43
2021/08/01 06:31:18;;;;;;;3.50;1.48;;;;;;;14.18;64.95;100730.84;5080927;28;20060;-49
2021/08/01 06:33:45;;;;;;;3.83;2.22;;;;;;;14.20;64.79;100731.28;5081618;28;20048;-45
2021/08/01 06:36:16;;;;;;;4.85;1.98;;;;;;;14.19;65.08;100726.09;5081266;28;20055;-42
2021/08/01 06:38:44;;;;;;;4.15;1.33;;;;;;;14.26;64.80;100726.22;5081101;28;20048;-46
2021/08/01 06:41:12;;;;;;;2.90;1.50;;;;;;;14.32;64.45;100724.75;5080744;28;20076;-47
2021/08/01 06:43:41;;;;;;;4.72;2.08;;;;;;;14.32;64.71;100736.69;5080467;28;20048;-42
2021/08/01 06:46:10;;;;;;;4.53;1.45;;;;;;;14.34;64.59;100733.56;5080651;28;20043;-43
2021/08/01 06:48:38;;;;;;;4.78;1.77;;;;;;;14.38;64.25;100737.19;5081238;28;20122;-42
2021/08/01 06:51:05;;;;;;;2.63;1.20;;;;;;;14.39;63.89;100736.84;5081158;28;20492;-44
2021/08/01 06:53:32;;;;;;;4.30;2.10;;;;;;;14.43;63.74;100739.66;5081433;28;20043;-47
2021/08/01 06:55:58;;;;;;;5.30;1.55;;;;;;;14.51;63.77;100738.59;5081152;28;20048;-43
2021/08/01 06:58:26;;;;;;;2.33;1.55;;;;;;;14.54;63.96;100737.88;5081019;28;20048;-43
2021/08/01 07:00:53;;;;;;;3.10;1.85;;;;;;;14.58;64.11;100739.56;5074214;28;21378;-48
2021/08/01 07:03:20;;;;;;;4.95;1.70;;;;;;;14.60;63.71;100741.97;5082277;28;20090;-46
2021/08/01 07:05:48;;;;;;;3.80;1.60;;;;;;;14.68;63.76;100737.31;5081036;28;20036;-49
2021/08/01 07:08:15;;;;;;;3.40;1.70;;;;;;;14.69;64.00;100738.94;5081293;28;20131;-44
2021/08/01 07:10:42;;;;;;;4.95;1.63;;;;;;;14.71;63.79;100737.38;5080849;28;20055;-44
2021/08/01 07:13:09;;;;;;;3.22;1.58;;;;;;;14.72;63.70;100733.41;5080842;28;20496;-46
2021/08/01 07:15:37;;;;;;;4.35;2.10;;;;;;;14.71;63.60;100739.34;5080802;28;20122;-43
2021/08/01 07:18:05;;;;;;;2.38;1.40;;;;;;;14.72;63.33;100744.53;5080446;28;20560;-46
2021/08/01 07:20:33;;;;;;;3.47;1.60;;;;;;;14.76;63.31;100741.81;5079741;28;20042;-42
2021/08/01 07:23:00;;;;;;;2.92;1.63;;;;;;;14.79;63.24;100741.88;5080509;28;20142;-45
2021/08/01 07:25:29;;;;;;;3.08;1.85;;;;;;;14.83;62.89;100758.66;5081131;28;20048;-43
2021/08/01 07:28:00;;;;;;;2.80;1.70;;;;;;;14.81;62.90;100745.09;5080831;28;20089;-46
2021/08/01 07:30:27;;;;;;;4.03;1.48;;;;;;;14.84;62.69;100752.72;5058081;28;20135;-47
2021/08/01 07:32:54;;;;;;;3.08;1.52;;;;;;;14.86;62.42;100744.78;5057563;28;20050;-43
2021/08/01 07:35:23;;;;;;;1.95;1.65;;;;;;;14.92;62.51;100754.44;5058384;28;20052;-43
2021/08/01 07:37:50;;;;;;;7.40;2.95;;;;;;;14.88;62.00;100750.00;5060131;28;20135;-45
2021/08/01 07:40:17;;;;;;;8.80;2.78;;;;;;;14.93;62.11;100750.47;5061153;28;20063;-45
2021/08/01 07:42:44;;;;;;;2.35;1.63;;;;;;;14.97;62.22;100756.91;5060086;28;20516;-44
2021/08/01 07:47:51;;;;;;;3.53;1.30;;;;;;;15.06;61.83;100754.66;5058353;28;20452;-46
2021/08/01 07:50:18;;;;;;;3.40;1.85;;;;;;;15.12;61.74;100750.38;5061697;28;20544;-47
2021/08/01 07:52:45;;;;;;;3.40;1.60;;;;;;;15.22;61.81;100758.06;5060633;28;20037;-43
2021/08/01 07:55:15;;;;;;;6.10;2.15;;;;;;;15.27;61.77;100768.13;5059848;28;20103;-43
2021/08/01 07:57:43;;;;;;;2.05;1.55;;;;;;;15.34;61.42;100764.63;5058418;28;20135;-43
2021/08/01 08:00:11;;;;;;;3.63;1.30;;;;;;;15.44;61.50;100766.75;5059675;28;20098;-43
2021/08/01 08:02:40;;;;;;;3.47;1.65;;;;;;;15.62;61.13;100768.63;5046320;28;20106;-46
2021/08/01 08:05:08;;;;;;;5.07;1.60;;;;;;;15.71;60.75;100762.78;5056515;28;20516;-44
2021/08/01 08:07:35;;;;;;;2.35;1.55;;;;;;;15.75;60.46;100758.06;5055176;28;20044;-49
2021/08/01 08:10:04;;;;;;;2.30;1.00;;;;;;;15.79;59.85;100764.47;5055851;28;20052;-48
2021/08/01 08:12:34;;;;;;;2.58;1.13;;;;;;;15.76;59.57;100771.63;5053456;28;20059;-47
2021/08/01 08:15:06;;;;;;;6.55;1.40;;;;;;;15.79;59.39;100775.63;5053049;28;20048;-45
2021/08/01 08:17:33;;;;;;;4.03;1.10;;;;;;;15.84;59.21;100772.50;5055309;28;20040;-43
2021/08/01 08:20:06;;;;;;;3.67;1.55;;;;;;;15.91;58.72;100771.81;5054823;28;20037;-45
2021/08/01 08:22:33;;;;;;;2.10;1.30;;;;;;;15.90;58.91;100771.00;5054864;28;20080;-52
2021/08/01 08:25:00;;;;;;;2.85;1.17;;;;;;;15.96;59.22;100771.47;5054086;28;20127;-44
2021/08/01 08:27:29;;;;;;;3.78;1.60;;;;;;;16.00;58.99;100775.09;5053799;28;20056;-49
2021/08/01 08:29:55;;;;;;;3.40;1.25;;;;;;;16.01;58.55;100765.53;5052509;28;20051;-45
2021/08/01 08:32:22;;;;;;;2.95;1.00;;;;;;;16.01;58.17;100780.31;5072999;28;20056;-44
2021/08/01 08:34:49;;;;;;;3.00;1.38;;;;;;;16.00;58.15;100775.91;5075210;28;20443;-45
2021/08/01 08:37:16;;;;;;;2.90;1.15;;;;;;;16.05;57.69;100780.34;5074643;28;20119;-43
2021/08/01 08:39:43;;;;;;;3.35;1.20;;;;;;;16.02;57.42;100772.75;5077725;28;20150;-45
2021/08/01 08:42:09;;;;;;;3.90;1.23;;;;;;;16.04;57.45;100773.16;5077270;28;20089;-53
2021/08/01 08:44:36;;;;;;;1.58;1.23;;;;;;;16.11;57.49;100765.66;5075503;28;20064;-43
2021/08/01 08:47:04;;;;;;;4.43;1.25;;;;;;;16.32;57.61;100765.88;5074176;28;20044;-42
2021/08/01 08:49:36;;;;;;;1.52;1.15;;;;;;;16.43;56.92;100772.41;5073518;28;20055;-48
2021/08/01 08:52:06;;;;;;;3.65;2.10;;;;;;;16.55;57.05;100764.97;5071295;28;20048;-43
2021/08/01 08:54:41;;;;;;;2.08;1.67;;;;;;;16.65;56.91;100762.25;5073341;28;20937;-45
2021/08/01 08:57:37;;;;;;;3.10;0.93;;;;;;;16.61;55.64;100757.81;5072375;28;20043;-43
2021/08/01 09:00:08;;;;;;;2.28;2.08;;;;;;;16.60;56.65;100765.38;5066185;28;20052;-46
2021/08/01 09:02:35;;;;;;;1.23;0.95;;;;;;;16.56;56.41;100764.56;5071830;28;20048;-44
2021/08/01 09:05:04;;;;;;;2.13;1.23;;;;;;;16.44;56.26;100762.03;5069873;28;20081;-45
2021/08/01 09:07:31;;;;;;;3.20;1.00;;;;;;;16.51;56.22;100766.88;5071038;28;20040;-45
2021/08/01 09:09:58;;;;;;;1.23;0.80;;;;;;;16.59;56.25;100774.16;5071282;28;20059;-43
2021/08/01 09:12:25;;;;;;;2.95;1.00;;;;;;;16.65;55.97;100761.44;5073171;28;20055;-45
2021/08/01 09:15:17;;;;;;;1.42;1.10;;;;;;;16.65;54.38;100764.25;5076830;28;20393;-43
2021/08/01 09:17:44;;;;;;;3.47;1.80;;;;;;;16.70;56.07;100763.88;5078123;28;20044;-43
2021/08/01 09:20:13;;;;;;;3.40;1.33;;;;;;;16.69;56.18;100773.44;5076320;28;20040;-44
2021/08/01 09:22:40;;;;;;;3.40;1.23;;;;;;;16.75;55.98;100778.31;5077070;28;20036;-45
2021/08/01 09:25:20;;;;;;;1.42;1.10;;;;;;;16.78;54.92;100771.16;5037186;28;20424;-42
2021/08/01 09:27:50;;;;;;;4.55;1.25;;;;;;;16.73;55.89;100774.31;5076455;28;20400;-42
2021/08/01 09:30:18;;;;;;;6.55;1.20;;;;;;;16.78;55.65;100776.75;5076918;28;20091;-44
2021/08/01 09:32:47;;;;;;;4.45;1.95;;;;;;;16.83;55.34;100771.59;5076390;28;20036;-44
2021/08/01 09:35:19;;;;;;;1.30;1.20;;;;;;;16.87;54.86;100778.00;5076752;28;20044;-43
2021/08/01 09:37:57;;;;;;;3.08;1.10;;;;;;;16.93;55.10;100784.06;5076269;28;20060;-51
2021/08/01 09:40:30;;;;;;;3.05;1.45;;;;;;;16.98;54.81;100772.50;5077598;28;20174;-44
2021/08/01 09:43:12;;;;;;;1.60;1.20;;;;;;;16.99;54.36;100779.72;5076199;28;20479;-43
2021/08/01 09:45:39;;;;;;;2.28;1.15;;;;;;;16.89;54.55;100778.41;5076709;28;20093;-45
2021/08/01 09:48:19;;;;;;;2.50;1.27;;;;;;;16.96;54.57;100775.69;5077782;28;20121;-46
2021/08/01 09:51:01;;;;;;;2.17;1.00;;;;;;;16.96;53.94;100778.50;5077087;28;20145;-43
2021/08/01 09:53:28;;;;;;;2.67;0.82;;;;;;;16.95;54.90;100778.88;5074504;28;20119;-44
2021/08/01 09:56:17;;;;;;;3.78;1.05;;;;;;;16.99;54.39;100782.50;5074726;28;20044;-43
2021/08/01 09:58:45;;;;;;;1.35;1.13;;;;;;;17.05;54.91;100786.53;5077070;28;20549;-45
2021/08/01 10:01:12;;;;;;;2.70;0.95;;;;;;;17.13;54.57;100784.63;5073376;28;20048;-46
2021/08/01 10:03:44;;;;;;;2.45;1.42;;;;;;;17.28;54.18;100787.13;5075777;28;20080;-48
2021/08/01 10:06:17;;;;;;;7.32;2.30;;;;;;;17.41;54.33;100785.59;5078263;28;20047;-44
2021/08/01 10:08:45;;;;;;;3.38;1.10;;;;;;;17.50;54.04;100783.25;5077033;28;20051;-43
2021/08/01 10:11:18;;;;;;;3.50;1.23;;;;;;;17.46;53.78;100788.03;5077447;28;20062;-44
2021/08/01 10:13:47;;;;;;;2.55;1.10;;;;;;;17.67;53.96;100783.78;5074850;28;20054;-43
2021/08/01 10:16:16;;;;;;;1.58;0.98;;;;;;;17.72;53.71;100786.19;5070732;28;20040;-49
2021/08/01 10:18:44;;;;;;;1.05;0.85;;;;;;;17.80;53.70;100790.63;5057423;28;20113;-50
2021/08/01 10:21:16;;;;;;;2.90;0.85;;;;;;;17.86;53.49;100786.28;5077755;28;20054;-48
2021/08/01 10:23:45;;;;;;;2.05;0.93;;;;;;;17.87;53.38;100793.50;5077005;28;20129;-47
2021/08/01 10:26:14;;;;;;;1.50;0.80;;;;;;;17.92;53.14;100795.91;5077870;28;20130;-50
2021/08/01 10:29:05;;;;;;;2.35;1.42;;;;;;;18.00;51.94;100794.75;5076047;28;20052;-49
2021/08/01 10:32:09;;;;;;;2.63;1.48;;;;;;;18.28;50.82;100797.63;5055628;28;20166;-44
2021/08/01 10:34:54;;;;;;;0.93;0.90;;;;;;;18.57;51.60;100801.34;5051561;28;20053;-47
2021/08/01 10:37:24;;;;;;;3.60;0.90;;;;;;;18.57;52.00;100804.94;5055977;28;20055;-51
2021/08/01 10:39:53;;;;;;;1.75;1.17;;;;;;;18.60;52.01;100801.34;5055590;28;20458;-49
2021/08/01 10:42:24;;;;;;;2.92;1.17;;;;;;;18.61;51.77;100808.53;5056174;28;20051;-50
2021/08/01 10:44:53;;;;;;;2.35;0.88;;;;;;;18.59;52.00;100807.34;5055415;28;20935;-43
2021/08/01 10:47:22;;;;;;;2.25;1.77;;;;;;;19.03;51.78;100804.19;5056543;28;20036;-45
2021/08/01 10:49:49;;;;;;;2.85;1.50;;;;;;;19.70;51.14;100802.09;5055464;28;20053;-44
2021/08/01 10:52:18;;;;;;;2.92;0.88;;;;;;;19.94;50.00;100792.78;5056525;28;20037;-47
2021/08/01 10:55:05;;;;;;;2.45;0.98;;;;;;;20.19;48.44;100800.31;5056761;28;20118;-44
2021/08/01 10:57:33;;;;;;;1.25;1.08;;;;;;;20.19;48.92;100803.94;5058761;28;20528;-50
2021/08/01 11:00:05;;;;;;;3.00;1.00;;;;;;;20.06;48.24;100799.97;5058102;28;20514;-50
2021/08/01 11:02:34;;;;;;;1.95;0.98;;;;;;;19.82;48.69;100803.69;5055911;28;20390;-43
2021/08/01 11:05:35;;;;;;;3.60;1.17;;;;;;;19.70;47.89;100793.66;5055206;28;20044;-47
2021/08/01 11:08:04;;;;;;;3.03;0.65;;;;;;;19.93;48.53;100791.22;5054342;28;20076;-44
2021/08/01 11:10:32;;;;;;;4.35;1.70;;;;;;;20.16;48.49;100787.06;5061385;28;20136;-44
2021/08/01 11:12:59;;;;;;;1.95;1.25;;;;;;;20.31;47.84;100786.63;5060710;28;20128;-43
2021/08/01 11:15:54;;;;;;;3.33;1.00;;;;;;;20.26;46.37;100780.63;5061658;28;20483;-44
2021/08/01 11:18:32;;;;;;;1.98;1.00;;;;;;;20.10;47.53;100794.31;5048294;28;20162;-43
2021/08/01 11:21:03;;;;;;;4.82;1.30;;;;;;;20.25;47.85;100790.28;5061291;28;20152;-48
2021/08/01 11:23:49;;;;;;;3.85;1.13;;;;;;;20.40;47.38;100786.97;5059574;28;20619;-47
2021/08/01 11:26:18;;;;;;;0.70;0.70;;;;;;;20.13;47.21;100787.88;5060921;28;20401;-47
2021/08/01 11:29:02;;;;;;;2.58;0.88;;;;;;;19.71;47.27;100784.06;5061657;28;20052;-48
2021/08/01 11:31:30;;;;;;;2.40;1.08;;;;;;;19.54;47.64;100798.94;5070544;28;20048;-43
2021/08/01 11:34:16;;;;;;;1.70;1.00;;;;;;;19.76;48.10;100780.81;5063003;28;20655;-46
2021/08/01 11:36:44;;;;;;;3.00;1.00;;;;;;;20.00;48.12;100788.34;5080847;28;20129;-44
2021/08/01 11:39:12;;;;;;;1.55;0.90;;;;;;;19.95;48.03;100794.41;5081873;28;20040;-47